createdAt,value
2017-06-02T00:00:15.569Z,1014.76
2017-06-02T00:00:56.158Z,1014.74
2017-06-02T00:01:36.744Z,1014.72
2017-06-02T00:02:17.336Z,1014.71
2017-06-02T00:02:57.908Z,1014.75
2017-06-02T00:03:38.493Z,1014.74
2017-06-02T00:04:19.084Z,1014.72
2017-06-02T00:04:59.668Z,1014.72
2017-06-02T00:05:40.252Z,1014.68
2017-06-02T00:06:20.836Z,1014.75
2017-06-02T00:07:01.426Z,1014.72
2017-06-02T00:07:42.005Z,1014.69
2017-06-02T00:08:22.587Z,1014.71
2017-06-02T00:09:03.164Z,1014.69
2017-06-02T00:09:43.746Z,1014.72
2017-06-02T00:10:24.319Z,1014.71
2017-06-02T00:11:04.896Z,1014.66
2017-06-02T00:11:45.474Z,1014.68
2017-06-02T00:12:26.064Z,1014.64
2017-06-02T00:13:06.651Z,1014.62
2017-06-02T00:13:47.275Z,1014.64
2017-06-02T00:14:27.854Z,1014.65
2017-06-02T00:15:08.454Z,1014.66
2017-06-02T00:15:49.060Z,1014.67
2017-06-02T00:16:29.661Z,1014.64
2017-06-02T00:17:10.245Z,1014.63
2017-06-02T00:17:50.827Z,1014.6
2017-06-02T00:18:31.407Z,1014.57
2017-06-02T00:19:11.999Z,1014.57
2017-06-02T00:19:52.583Z,1014.55
2017-06-02T00:20:33.170Z,1014.53
2017-06-02T00:21:13.758Z,1014.53
2017-06-02T00:21:54.337Z,1014.56
2017-06-02T00:22:34.932Z,1014.56
2017-06-02T00:23:15.526Z,1014.55
2017-06-02T00:23:56.113Z,1014.53
2017-06-02T00:24:36.727Z,1014.51
2017-06-02T00:25:17.307Z,1014.54
2017-06-02T00:25:57.876Z,1014.52
2017-06-02T00:26:38.450Z,1014.53
2017-06-02T00:27:19.039Z,1014.52
2017-06-02T00:27:59.621Z,1014.5
2017-06-02T00:28:40.222Z,1014.51
2017-06-02T00:29:20.806Z,1014.51
2017-06-02T00:30:01.400Z,1014.48
2017-06-02T00:30:41.987Z,1014.49
2017-06-02T00:31:22.578Z,1014.47
2017-06-02T00:32:03.159Z,1014.53
2017-06-02T00:32:43.743Z,1014.48
2017-06-02T00:33:24.342Z,1014.51
2017-06-02T00:34:04.925Z,1014.52
2017-06-02T00:34:45.511Z,1014.48
2017-06-02T00:35:26.079Z,1014.48
2017-06-02T00:36:06.653Z,1014.47
2017-06-02T00:36:47.245Z,1014.49
2017-06-02T00:37:27.830Z,1014.43
2017-06-02T00:38:08.407Z,1014.47
2017-06-02T00:38:48.990Z,1014.46
2017-06-02T00:39:29.581Z,1014.49
2017-06-02T00:40:10.172Z,1014.49
2017-06-02T00:40:50.758Z,1014.48
2017-06-02T00:41:31.348Z,1014.48
2017-06-02T00:42:11.929Z,1014.46
2017-06-02T00:42:52.518Z,1014.48
2017-06-02T00:43:33.098Z,1014.46
2017-06-02T00:44:13.691Z,1014.44
2017-06-02T00:44:54.296Z,1014.46
2017-06-02T00:45:34.886Z,1014.46
2017-06-02T00:46:15.458Z,1014.48
2017-06-02T00:46:56.050Z,1014.47
2017-06-02T00:47:36.625Z,1014.48
2017-06-02T00:48:17.208Z,1014.41
2017-06-02T00:48:57.794Z,1014.42
2017-06-02T00:49:38.375Z,1014.42
2017-06-02T00:50:18.963Z,1014.4
2017-06-02T00:50:59.543Z,1014.41
2017-06-02T00:51:40.128Z,1014.42
2017-06-02T00:52:20.718Z,1014.44
2017-06-02T00:53:01.306Z,1014.41
2017-06-02T00:53:41.881Z,1014.39
2017-06-02T00:54:22.464Z,1014.42
2017-06-02T00:55:03.042Z,1014.42
2017-06-02T00:55:43.624Z,1014.4
2017-06-02T00:56:24.200Z,1014.41
2017-06-02T00:57:04.777Z,1014.41
2017-06-02T00:57:45.399Z,1014.39
2017-06-02T00:58:26.000Z,1014.38
2017-06-02T00:59:06.595Z,1014.38
2017-06-02T00:59:47.184Z,1014.41
2017-06-02T01:00:27.766Z,1014.38
2017-06-02T01:01:08.353Z,1014.39
2017-06-02T01:01:48.942Z,1014.37
2017-06-02T01:02:29.516Z,1014.39
2017-06-02T01:03:10.112Z,1014.39
2017-06-02T01:03:50.707Z,1014.4
2017-06-02T01:04:31.285Z,1014.38
2017-06-02T01:05:11.864Z,1014.38
2017-06-02T01:05:52.458Z,1014.36
2017-06-02T01:06:33.053Z,1014.36
2017-06-02T01:07:13.640Z,1014.38
2017-06-02T01:07:54.213Z,1014.37
2017-06-02T01:08:34.796Z,1014.36
2017-06-02T01:09:15.390Z,1014.36
2017-06-02T01:09:55.976Z,1014.35
2017-06-02T01:10:36.612Z,1014.39
2017-06-02T01:11:17.201Z,1014.35
2017-06-02T01:11:57.785Z,1014.36
2017-06-02T01:12:38.385Z,1014.31
2017-06-02T01:13:18.981Z,1014.35
2017-06-02T01:13:59.571Z,1014.31
2017-06-02T01:14:40.174Z,1014.28
2017-06-02T01:15:20.762Z,1014.31
2017-06-02T01:16:01.363Z,1014.26
2017-06-02T01:16:41.927Z,1014.29
2017-06-02T01:17:22.512Z,1014.33
2017-06-02T01:18:03.093Z,1014.3
2017-06-02T01:18:43.670Z,1014.31
2017-06-02T01:19:24.260Z,1014.27
2017-06-02T01:20:04.843Z,1014.29
2017-06-02T01:20:45.432Z,1014.3
2017-06-02T01:21:26.021Z,1014.32
2017-06-02T01:22:06.594Z,1014.29
2017-06-02T01:22:47.173Z,1014.29
2017-06-02T01:23:27.755Z,1014.3
2017-06-02T01:24:08.362Z,1014.3
2017-06-02T01:24:48.929Z,1014.31
2017-06-02T01:25:29.511Z,1014.26
2017-06-02T01:26:10.095Z,1014.27
2017-06-02T01:26:50.670Z,1014.26
2017-06-02T01:27:31.245Z,1014.28
2017-06-02T01:28:11.833Z,1014.28
2017-06-02T01:28:52.403Z,1014.24
2017-06-02T01:29:33.001Z,1014.23
2017-06-02T01:30:13.608Z,1014.22
2017-06-02T01:30:54.182Z,1014.2
2017-06-02T01:31:34.820Z,1014.22
2017-06-02T01:32:15.354Z,1014.23
2017-06-02T01:32:55.952Z,1014.25
2017-06-02T01:33:36.528Z,1014.15
2017-06-02T01:34:17.109Z,1014.23
2017-06-02T01:34:57.676Z,1014.21
2017-06-02T01:35:38.269Z,1014.21
2017-06-02T01:36:18.880Z,1014.2
2017-06-02T01:36:59.467Z,1014.2
2017-06-02T01:37:40.051Z,1014.21
2017-06-02T01:38:20.618Z,1014.2
2017-06-02T01:39:01.208Z,1014.18
2017-06-02T01:39:41.784Z,1014.22
2017-06-02T01:40:22.557Z,1014.2
2017-06-02T01:41:03.138Z,1014.21
2017-06-02T01:41:43.724Z,1014.19
2017-06-02T01:42:24.302Z,1014.21
2017-06-02T01:43:04.888Z,1014.28
2017-06-02T01:43:45.478Z,1014.25
2017-06-02T01:44:26.059Z,1014.25
2017-06-02T01:45:06.652Z,1014.2
2017-06-02T01:45:47.232Z,1014.22
2017-06-02T01:46:27.811Z,1014.26
2017-06-02T01:47:08.412Z,1014.21
2017-06-02T01:47:48.994Z,1014.24
2017-06-02T01:48:29.577Z,1014.17
2017-06-02T01:49:10.179Z,1014.17
2017-06-02T01:49:50.762Z,1014.18
2017-06-02T01:50:31.331Z,1014.17
2017-06-02T01:51:11.923Z,1014.18
2017-06-02T01:51:52.505Z,1014.13
2017-06-02T01:52:33.087Z,1014.17
2017-06-02T01:53:13.686Z,1014.18
2017-06-02T01:53:54.268Z,1014.16
2017-06-02T01:54:34.886Z,1014.16
2017-06-02T01:55:15.471Z,1014.2
2017-06-02T01:55:56.053Z,1014.09
2017-06-02T01:56:36.631Z,1014.13
2017-06-02T01:57:17.322Z,1014.11
2017-06-02T01:57:57.908Z,1014.13
2017-06-02T01:58:38.501Z,1014.09
2017-06-02T01:59:19.094Z,1014.12
2017-06-02T01:59:59.671Z,1014.12
2017-06-02T02:00:40.254Z,1014.14
2017-06-02T02:01:20.847Z,1014.11
2017-06-02T02:02:01.431Z,1014.11
2017-06-02T02:02:42.021Z,1014.06
2017-06-02T02:03:22.630Z,1014.08
2017-06-02T02:04:03.225Z,1014.08
2017-06-02T02:04:43.809Z,1014.08
2017-06-02T02:05:24.383Z,1014.07
2017-06-02T02:06:04.984Z,1014.06
2017-06-02T02:06:45.570Z,1014.06
2017-06-02T02:07:26.149Z,1014.04
2017-06-02T02:08:06.732Z,1014.08
2017-06-02T02:08:47.320Z,1014.05
2017-06-02T02:09:27.899Z,1014.04
2017-06-02T02:10:08.541Z,1014.02
2017-06-02T02:10:49.083Z,1014.04
2017-06-02T02:11:29.664Z,1014.01
2017-06-02T02:12:10.243Z,1014.02
2017-06-02T02:12:50.855Z,1014.03
2017-06-02T02:13:31.439Z,1014.02
2017-06-02T02:14:12.037Z,1014.03
2017-06-02T02:14:52.610Z,1014.01
2017-06-02T02:15:33.192Z,1014.05
2017-06-02T02:16:13.784Z,1014.02
2017-06-02T02:16:54.361Z,1014.07
2017-06-02T02:17:34.955Z,1014.02
2017-06-02T02:18:15.551Z,1014.03
2017-06-02T02:18:56.125Z,1014.02
2017-06-02T02:19:36.723Z,1014.08
2017-06-02T02:20:17.304Z,1014.03
2017-06-02T02:20:57.925Z,1014.08
2017-06-02T02:21:38.541Z,1014.07
2017-06-02T02:22:19.141Z,1014.05
2017-06-02T02:22:59.726Z,1014.06
2017-06-02T02:23:40.313Z,1014.07
2017-06-02T02:24:20.894Z,1014.1
2017-06-02T02:25:01.503Z,1014.05
2017-06-02T02:25:42.086Z,1014.05
2017-06-02T02:26:22.682Z,1014.05
2017-06-02T02:27:03.264Z,1014.04
2017-06-02T02:27:43.843Z,1014.04
2017-06-02T02:28:24.430Z,1014.05
2017-06-02T02:29:05.023Z,1014.03
2017-06-02T02:29:45.602Z,1014.03
2017-06-02T02:30:26.196Z,1014.06
2017-06-02T02:31:06.775Z,1014.06
2017-06-02T02:31:47.359Z,1014.06
2017-06-02T02:32:27.942Z,1014.01
2017-06-02T02:33:08.534Z,1014.02
2017-06-02T02:33:49.129Z,1013.99
2017-06-02T02:34:29.699Z,1013.98
2017-06-02T02:35:10.283Z,1014
2017-06-02T02:35:50.864Z,1013.96
2017-06-02T02:36:31.451Z,1013.97
2017-06-02T02:37:12.037Z,1014
2017-06-02T02:37:52.625Z,1014.01
2017-06-02T02:38:33.204Z,1013.99
2017-06-02T02:39:13.796Z,1014.01
2017-06-02T02:39:54.382Z,1013.98
2017-06-02T02:40:34.971Z,1013.98
2017-06-02T02:41:15.550Z,1013.95
2017-06-02T02:41:56.136Z,1013.95
2017-06-02T02:42:36.725Z,1013.97
2017-06-02T02:43:17.324Z,1013.93
2017-06-02T02:43:57.912Z,1013.92
2017-06-02T02:44:38.509Z,1013.94
2017-06-02T02:45:19.162Z,1013.92
2017-06-02T02:45:59.740Z,1013.96
2017-06-02T02:46:40.334Z,1013.89
2017-06-02T02:47:20.914Z,1013.92
2017-06-02T02:48:01.485Z,1013.95
2017-06-02T02:48:42.077Z,1013.92
2017-06-02T02:49:22.648Z,1013.95
2017-06-02T02:50:03.228Z,1013.94
2017-06-02T02:50:43.811Z,1013.91
2017-06-02T02:51:24.387Z,1013.91
2017-06-02T02:52:04.965Z,1013.92
2017-06-02T02:52:45.536Z,1013.94
2017-06-02T02:53:26.109Z,1013.95
2017-06-02T02:54:06.682Z,1013.92
2017-06-02T02:54:47.261Z,1013.89
2017-06-02T02:55:27.851Z,1013.91
2017-06-02T02:56:08.425Z,1013.96
2017-06-02T02:56:49.026Z,1013.92
2017-06-02T02:57:29.608Z,1013.88
2017-06-02T02:58:10.181Z,1013.94
2017-06-02T02:58:50.762Z,1013.91
2017-06-02T02:59:31.341Z,1013.91
2017-06-02T03:00:11.917Z,1013.9
2017-06-02T03:00:52.534Z,1013.93
2017-06-02T03:01:33.102Z,1013.92
2017-06-02T03:02:13.701Z,1013.93
2017-06-02T03:02:54.284Z,1013.96
2017-06-02T03:03:34.902Z,1013.96
2017-06-02T03:04:15.485Z,1013.94
2017-06-02T03:04:56.068Z,1013.9
2017-06-02T03:05:36.666Z,1013.91
2017-06-02T03:06:17.248Z,1013.91
2017-06-02T03:06:57.827Z,1013.94
2017-06-02T03:07:38.430Z,1013.91
2017-06-02T03:08:19.024Z,1013.91
2017-06-02T03:08:59.625Z,1013.9
2017-06-02T03:09:40.212Z,1013.87
2017-06-02T03:10:20.798Z,1013.89
2017-06-02T03:11:01.382Z,1013.93
2017-06-02T03:11:41.975Z,1013.87
2017-06-02T03:12:22.555Z,1013.89
2017-06-02T03:13:03.139Z,1013.89
2017-06-02T03:13:43.752Z,1013.93
2017-06-02T03:14:24.337Z,1013.91
2017-06-02T03:15:04.925Z,1013.88
2017-06-02T03:15:45.518Z,1013.89
2017-06-02T03:16:26.104Z,1013.92
2017-06-02T03:17:06.683Z,1013.87
2017-06-02T03:17:47.268Z,1013.89
2017-06-02T03:18:27.862Z,1013.9
2017-06-02T03:19:08.448Z,1013.89
2017-06-02T03:19:49.042Z,1013.89
2017-06-02T03:20:29.643Z,1013.88
2017-06-02T03:21:10.241Z,1013.83
2017-06-02T03:21:50.835Z,1013.86
2017-06-02T03:22:31.427Z,1013.86
2017-06-02T03:23:11.997Z,1013.86
2017-06-02T03:23:52.593Z,1013.84
2017-06-02T03:24:33.177Z,1013.83
2017-06-02T03:25:13.754Z,1013.86
2017-06-02T03:25:54.333Z,1013.8
2017-06-02T03:26:34.932Z,1013.83
2017-06-02T03:27:15.514Z,1013.82
2017-06-02T03:27:56.093Z,1013.76
2017-06-02T03:28:36.672Z,1013.79
2017-06-02T03:29:17.250Z,1013.76
2017-06-02T03:29:57.842Z,1013.78
2017-06-02T03:30:38.448Z,1013.78
2017-06-02T03:31:19.031Z,1013.81
2017-06-02T03:31:59.610Z,1013.8
2017-06-02T03:32:40.182Z,1013.83
2017-06-02T03:33:20.769Z,1013.77
2017-06-02T03:34:01.355Z,1013.78
2017-06-02T03:34:41.940Z,1013.79
2017-06-02T03:35:22.507Z,1013.77
2017-06-02T03:36:03.106Z,1013.8
2017-06-02T03:36:43.704Z,1013.82
2017-06-02T03:37:24.279Z,1013.79
2017-06-02T03:38:04.868Z,1013.79
2017-06-02T03:38:45.457Z,1013.82
2017-06-02T03:39:26.042Z,1013.8
2017-06-02T03:40:06.623Z,1013.83
2017-06-02T03:40:47.204Z,1013.82
2017-06-02T03:41:27.788Z,1013.83
2017-06-02T03:42:08.389Z,1013.83
2017-06-02T03:42:49.002Z,1013.84
2017-06-02T03:43:29.587Z,1013.8
2017-06-02T03:44:10.175Z,1013.87
2017-06-02T03:44:50.760Z,1013.84
2017-06-02T03:45:31.350Z,1013.84
2017-06-02T03:46:11.923Z,1013.85
2017-06-02T03:46:52.505Z,1013.92
2017-06-02T03:47:33.082Z,1013.9
2017-06-02T03:48:13.663Z,1013.83
2017-06-02T03:48:54.251Z,1013.89
2017-06-02T03:49:34.835Z,1013.87
2017-06-02T03:50:15.407Z,1013.92
2017-06-02T03:50:56.023Z,1013.92
2017-06-02T03:51:36.611Z,1013.91
2017-06-02T03:52:17.192Z,1013.91
2017-06-02T03:52:57.779Z,1013.91
2017-06-02T03:53:38.363Z,1013.91
2017-06-02T03:54:18.959Z,1013.93
2017-06-02T03:54:59.543Z,1013.96
2017-06-02T03:55:40.125Z,1013.94
2017-06-02T03:56:20.712Z,1013.88
2017-06-02T03:57:01.297Z,1013.89
2017-06-02T03:57:41.891Z,1013.94
2017-06-02T03:58:22.473Z,1013.88
2017-06-02T03:59:03.059Z,1013.92
2017-06-02T03:59:43.632Z,1013.9
2017-06-02T04:00:24.247Z,1013.91
2017-06-02T04:01:04.846Z,1013.94
2017-06-02T04:01:45.448Z,1013.93
2017-06-02T04:02:26.042Z,1013.92
2017-06-02T04:03:06.628Z,1013.94
2017-06-02T04:03:47.214Z,1013.94
2017-06-02T04:04:27.815Z,1013.93
2017-06-02T04:05:08.407Z,1013.96
2017-06-02T04:05:49.015Z,1013.99
2017-06-02T04:06:29.611Z,1013.94
2017-06-02T04:07:10.212Z,1013.95
2017-06-02T04:07:50.803Z,1013.97
2017-06-02T04:08:31.394Z,1013.95
2017-06-02T04:09:11.991Z,1013.92
2017-06-02T04:09:52.574Z,1013.91
2017-06-02T04:10:33.161Z,1013.94
2017-06-02T04:11:13.755Z,1013.94
2017-06-02T04:11:54.331Z,1013.96
2017-06-02T04:12:34.936Z,1013.89
2017-06-02T04:13:15.527Z,1013.87
2017-06-02T04:13:56.106Z,1013.91
2017-06-02T04:14:36.684Z,1013.9
2017-06-02T04:15:17.333Z,1013.92
2017-06-02T04:15:57.923Z,1013.92
2017-06-02T04:16:38.496Z,1013.94
2017-06-02T04:17:19.093Z,1013.95
2017-06-02T04:17:59.690Z,1013.91
2017-06-02T04:18:40.283Z,1013.93
2017-06-02T04:19:20.861Z,1013.93
2017-06-02T04:20:01.451Z,1013.95
2017-06-02T04:20:42.057Z,1013.92
2017-06-02T04:21:22.657Z,1013.97
2017-06-02T04:22:03.239Z,1013.99
2017-06-02T04:22:43.846Z,1013.94
2017-06-02T04:23:24.434Z,1013.97
2017-06-02T04:24:05.021Z,1013.98
2017-06-02T04:24:45.615Z,1013.99
2017-06-02T04:25:26.208Z,1013.95
2017-06-02T04:26:06.780Z,1013.97
2017-06-02T04:26:47.347Z,1013.97
2017-06-02T04:27:27.947Z,1014
2017-06-02T04:28:08.528Z,1013.96
2017-06-02T04:28:49.132Z,1013.99
2017-06-02T04:29:29.735Z,1014
2017-06-02T04:30:10.380Z,1014.01
2017-06-02T04:30:50.975Z,1013.98
2017-06-02T04:31:31.555Z,1013.99
2017-06-02T04:32:12.143Z,1013.97
2017-06-02T04:32:52.730Z,1014.05
2017-06-02T04:33:33.300Z,1014.02
2017-06-02T04:34:13.881Z,1014.01
2017-06-02T04:34:54.462Z,1014.02
2017-06-02T04:35:35.042Z,1014.01
2017-06-02T04:36:15.631Z,1014.05
2017-06-02T04:36:56.216Z,1014.07
2017-06-02T04:37:36.805Z,1014.04
2017-06-02T04:38:17.396Z,1014.03
2017-06-02T04:38:57.975Z,1014.03
2017-06-02T04:39:38.563Z,1014.04
2017-06-02T04:40:19.175Z,1014.03
2017-06-02T04:40:59.766Z,1014.05
2017-06-02T04:41:40.366Z,1014.02
2017-06-02T04:42:20.973Z,1014.08
2017-06-02T04:43:01.560Z,1014.06
2017-06-02T04:43:42.148Z,1014.11
2017-06-02T04:44:22.748Z,1014.11
2017-06-02T04:45:03.343Z,1014.11
2017-06-02T04:45:43.937Z,1014.11
2017-06-02T04:46:24.528Z,1014.12
2017-06-02T04:47:05.127Z,1014.11
2017-06-02T04:47:45.714Z,1014.15
2017-06-02T04:48:26.292Z,1014.1
2017-06-02T04:49:06.887Z,1014.13
2017-06-02T04:49:47.468Z,1014.14
2017-06-02T04:50:28.045Z,1014.15
2017-06-02T04:51:08.617Z,1014.16
2017-06-02T04:51:49.203Z,1014.15
2017-06-02T04:52:29.800Z,1014.15
2017-06-02T04:53:10.378Z,1014.14
2017-06-02T04:53:50.967Z,1014.18
2017-06-02T04:54:31.564Z,1014.15
2017-06-02T04:55:12.152Z,1014.16
2017-06-02T04:55:52.739Z,1014.19
2017-06-02T04:56:33.341Z,1014.17
2017-06-02T04:57:13.926Z,1014.16
2017-06-02T04:57:54.515Z,1014.17
2017-06-02T04:58:35.129Z,1014.19
2017-06-02T04:59:15.714Z,1014.15
2017-06-02T04:59:56.307Z,1014.19
2017-06-02T05:00:36.912Z,1014.18
2017-06-02T05:01:17.493Z,1014.18
2017-06-02T05:01:58.079Z,1014.14
2017-06-02T05:02:38.667Z,1014.15
2017-06-02T05:03:19.314Z,1014.18
2017-06-02T05:03:59.887Z,1014.18
2017-06-02T05:04:40.519Z,1014.2
2017-06-02T05:05:21.102Z,1014.19
2017-06-02T05:06:01.686Z,1014.2
2017-06-02T05:06:42.303Z,1014.22
2017-06-02T05:07:22.905Z,1014.22
2017-06-02T05:08:03.548Z,1014.22
2017-06-02T05:08:44.142Z,1014.2
2017-06-02T05:09:24.723Z,1014.19
2017-06-02T05:10:05.317Z,1014.17
2017-06-02T05:10:45.902Z,1014.17
2017-06-02T05:11:26.490Z,1014.17
2017-06-02T05:12:07.085Z,1014.17
2017-06-02T05:12:47.681Z,1014.17
2017-06-02T05:13:28.276Z,1014.15
2017-06-02T05:14:08.859Z,1014.19
2017-06-02T05:14:49.445Z,1014.16
2017-06-02T05:15:30.044Z,1014.18
2017-06-02T05:16:10.645Z,1014.16
2017-06-02T05:16:51.234Z,1014.17
2017-06-02T05:17:31.823Z,1014.16
2017-06-02T05:18:12.417Z,1014.15
2017-06-02T05:18:52.994Z,1014.2
2017-06-02T05:19:33.617Z,1014.16
2017-06-02T05:20:14.204Z,1014.14
2017-06-02T05:20:54.823Z,1014.13
2017-06-02T05:21:35.397Z,1014.13
2017-06-02T05:22:15.992Z,1014.16
2017-06-02T05:22:56.566Z,1014.14
2017-06-02T05:23:37.160Z,1014.19
2017-06-02T05:24:17.747Z,1014.16
2017-06-02T05:24:58.329Z,1014.17
2017-06-02T05:25:38.940Z,1014.22
2017-06-02T05:26:19.536Z,1014.26
2017-06-02T05:27:00.122Z,1014.32
2017-06-02T05:27:40.708Z,1014.31
2017-06-02T05:28:21.318Z,1014.31
2017-06-02T05:29:01.901Z,1014.4
2017-06-02T05:29:42.486Z,1014.43
2017-06-02T05:30:23.072Z,1014.44
2017-06-02T05:31:03.659Z,1014.48
2017-06-02T05:31:44.250Z,1014.51
2017-06-02T05:32:24.904Z,1014.51
2017-06-02T05:33:05.422Z,1014.54
2017-06-02T05:33:46.017Z,1014.55
2017-06-02T05:34:26.684Z,1014.59
2017-06-02T05:35:07.223Z,1014.63
2017-06-02T05:35:47.830Z,1014.65
2017-06-02T05:36:28.419Z,1014.71
2017-06-02T05:37:09.000Z,1014.7
2017-06-02T05:37:49.596Z,1014.77
2017-06-02T05:38:30.188Z,1014.82
2017-06-02T05:39:10.776Z,1014.78
2017-06-02T05:39:51.343Z,1014.88
2017-06-02T05:40:31.940Z,1014.89
2017-06-02T05:41:12.536Z,1014.98
2017-06-02T05:41:53.129Z,1014.98
2017-06-02T05:42:33.726Z,1015.09
2017-06-02T05:43:14.331Z,1015.18
2017-06-02T05:43:54.935Z,1015.2
2017-06-02T05:44:35.516Z,1015.27
2017-06-02T05:45:16.109Z,1015.32
2017-06-02T05:45:56.704Z,1015.35
2017-06-02T05:46:37.305Z,1015.42
2017-06-02T05:47:17.902Z,1015.47
2017-06-02T05:47:58.510Z,1015.62
2017-06-02T05:48:39.113Z,1015.76
2017-06-02T05:49:19.722Z,1015.84
2017-06-02T05:50:00.324Z,1015.84
2017-06-02T05:50:40.901Z,1015.91
2017-06-02T05:51:21.509Z,1015.9
2017-06-02T05:52:02.117Z,1015.99
2017-06-02T05:52:42.746Z,1016.1
2017-06-02T05:53:23.368Z,1016.14
2017-06-02T05:54:04.031Z,1016.12
2017-06-02T05:54:44.634Z,1016.11
2017-06-02T05:55:25.237Z,1016.18
2017-06-02T05:56:05.821Z,1016.28
2017-06-02T05:56:46.434Z,1016.35
2017-06-02T05:57:27.066Z,1016.35
2017-06-02T05:58:07.666Z,1016.33
2017-06-02T05:58:48.264Z,1016.19
2017-06-02T05:59:28.862Z,1016.14
2017-06-02T06:00:09.497Z,1016.07
2017-06-02T06:00:50.073Z,1015.97
2017-06-02T06:01:30.727Z,1015.89
2017-06-02T06:02:11.324Z,1015.84
2017-06-02T06:02:51.920Z,1015.76
2017-06-02T06:03:32.626Z,1015.75
2017-06-02T06:04:13.279Z,1015.73
2017-06-02T06:04:53.864Z,1015.65
2017-06-02T06:05:34.634Z,1015.57
2017-06-02T06:06:15.289Z,1015.55
2017-06-02T06:06:55.978Z,1015.56
2017-06-02T06:07:36.615Z,1015.63
2017-06-02T06:08:17.244Z,1015.56
2017-06-02T06:08:57.890Z,1015.52
2017-06-02T06:09:38.511Z,1015.54
2017-06-02T06:10:19.127Z,1015.7
2017-06-02T06:10:59.731Z,1015.84
2017-06-02T06:11:40.323Z,1015.83
2017-06-02T06:12:20.916Z,1015.69
2017-06-02T06:13:01.546Z,1015.64
2017-06-02T06:13:42.187Z,1015.83
2017-06-02T06:14:22.816Z,1015.94
2017-06-02T06:15:03.427Z,1016.17
2017-06-02T06:15:44.019Z,1016.25
2017-06-02T06:16:24.625Z,1016.27
2017-06-02T06:17:05.225Z,1016.23
2017-06-02T06:17:45.820Z,1016.19
2017-06-02T06:18:26.426Z,1016.11
2017-06-02T06:19:07.619Z,1016.17
2017-06-02T06:19:49.358Z,1016.26
2017-06-02T06:20:30.585Z,1016.35
2017-06-02T06:21:11.169Z,1016.54
2017-06-02T06:21:56.870Z,1016.58
2017-06-02T06:22:38.309Z,1016.62
2017-06-02T06:23:18.896Z,1016.73
2017-06-02T06:23:59.566Z,1016.8
2017-06-02T06:24:40.112Z,1016.86
2017-06-02T06:25:27.161Z,1016.97
2017-06-02T06:26:07.865Z,1016.97
2017-06-02T06:26:48.375Z,1016.85
2017-06-02T06:27:29.358Z,1016.77
2017-06-02T06:28:09.966Z,1016.94
2017-06-02T06:28:51.554Z,1016.94
2017-06-02T06:29:32.253Z,1016.95
2017-06-02T06:30:12.879Z,1017.04
2017-06-02T06:30:53.561Z,1017.08
2017-06-02T06:31:42.315Z,1016.94
2017-06-02T06:32:26.682Z,1017.06
2017-06-02T06:33:07.494Z,1017.34
2017-06-02T06:33:48.109Z,1017.47
2017-06-02T06:34:28.690Z,1017.19
2017-06-02T06:35:09.288Z,1016.84
2017-06-02T06:35:50.266Z,1016.5
2017-06-02T06:36:30.875Z,1016.09
2017-06-02T06:37:11.485Z,1015.55
2017-06-02T06:37:52.071Z,1015.11
2017-06-02T06:38:32.671Z,1014.91
2017-06-02T06:39:13.253Z,1014.84
2017-06-02T06:39:54.391Z,1014.8
2017-06-02T06:40:37.857Z,1014.75
2017-06-02T06:41:19.900Z,1014.74
2017-06-02T06:42:05.035Z,1014.71
2017-06-02T06:42:46.477Z,1014.67
2017-06-02T06:43:27.056Z,1014.66
2017-06-02T06:44:07.652Z,1014.65
2017-06-02T06:44:54.714Z,1014.68
2017-06-02T06:45:35.316Z,1014.73
2017-06-02T06:46:15.921Z,1014.86
2017-06-02T06:46:56.514Z,1015.14
2017-06-02T06:47:37.116Z,1015.6
2017-06-02T06:48:18.072Z,1016.06
2017-06-02T06:48:59.125Z,1016.22
2017-06-02T06:49:39.729Z,1016.18
2017-06-02T06:50:20.330Z,1016.06
2017-06-02T06:51:07.667Z,1015.77
2017-06-02T06:51:55.486Z,1015.29
2017-06-02T06:52:36.162Z,1014.96
2017-06-02T06:53:18.554Z,1014.74
2017-06-02T06:53:59.216Z,1014.7
2017-06-02T06:54:43.473Z,1014.65
2017-06-02T06:55:28.136Z,1014.63
2017-06-02T06:56:09.398Z,1014.61
2017-06-02T06:56:52.150Z,1014.61
2017-06-02T06:57:33.954Z,1014.61
2017-06-02T06:58:17.334Z,1014.6
2017-06-02T06:59:02.515Z,1014.56
2017-06-02T06:59:43.147Z,1014.58
2017-06-02T07:00:27.579Z,1014.54
2017-06-02T07:01:10.528Z,1014.55
2017-06-02T07:01:56.130Z,1014.54
2017-06-02T07:02:37.953Z,1014.51
2017-06-02T07:03:21.484Z,1014.54
2017-06-02T07:04:05.432Z,1014.54
2017-06-02T07:04:51.638Z,1014.54
2017-06-02T07:05:37.594Z,1014.6
2017-06-02T07:06:19.597Z,1014.58
2017-06-02T07:07:05.553Z,1014.62
2017-06-02T07:07:59.572Z,1014.8
2017-06-02T07:08:40.178Z,1014.96
2017-06-02T07:09:20.780Z,1015.11
2017-06-02T07:10:08.288Z,1015.03
2017-06-02T07:10:50.532Z,1014.85
2017-06-02T07:11:31.829Z,1014.68
2017-06-02T07:12:12.425Z,1014.6
2017-06-02T07:12:53.050Z,1014.58
2017-06-02T07:13:33.642Z,1014.6
2017-06-02T07:14:14.796Z,1014.63
2017-06-02T07:14:55.504Z,1014.61
2017-06-02T07:15:36.193Z,1014.64
2017-06-02T07:16:16.836Z,1014.67
2017-06-02T07:16:57.429Z,1014.66
2017-06-02T07:17:38.015Z,1014.64
2017-06-02T07:18:19.628Z,1014.7
2017-06-02T07:19:00.258Z,1014.78
2017-06-02T07:19:40.896Z,1014.81
2017-06-02T07:20:22.290Z,1014.86
2017-06-02T07:21:02.886Z,1014.9
2017-06-02T07:21:43.476Z,1014.95
2017-06-02T07:22:24.071Z,1014.92
2017-06-02T07:23:04.677Z,1014.99
2017-06-02T07:23:45.262Z,1014.97
2017-06-02T07:24:25.868Z,1014.97
2017-06-02T07:25:06.552Z,1014.97
2017-06-02T07:25:47.206Z,1014.89
2017-06-02T07:26:28.096Z,1014.88
2017-06-02T07:27:08.694Z,1014.84
2017-06-02T07:27:49.298Z,1014.79
2017-06-02T07:28:29.957Z,1014.74
2017-06-02T07:29:10.562Z,1014.75
2017-06-02T07:29:51.192Z,1014.74
2017-06-02T07:30:31.800Z,1014.72
2017-06-02T07:31:12.826Z,1014.68
2017-06-02T07:31:53.501Z,1014.67
2017-06-02T07:32:34.092Z,1014.67
2017-06-02T07:33:14.691Z,1014.67
2017-06-02T07:33:55.280Z,1014.63
2017-06-02T07:34:35.888Z,1014.62
2017-06-02T07:35:18.237Z,1014.63
2017-06-02T07:36:00.052Z,1014.61
2017-06-02T07:36:40.641Z,1014.59
2017-06-02T07:37:21.233Z,1014.6
2017-06-02T07:38:01.960Z,1014.58
2017-06-02T07:38:42.752Z,1014.57
2017-06-02T07:39:23.357Z,1014.54
2017-06-02T07:40:03.969Z,1014.55
2017-06-02T07:40:44.578Z,1014.56
2017-06-02T07:41:25.173Z,1014.53
2017-06-02T07:42:05.762Z,1014.58
2017-06-02T07:42:46.360Z,1014.53
2017-06-02T07:43:26.942Z,1014.57
2017-06-02T07:44:07.543Z,1014.53
2017-06-02T07:44:48.139Z,1014.58
2017-06-02T07:45:28.747Z,1014.52
2017-06-02T07:46:09.343Z,1014.53
2017-06-02T07:46:49.946Z,1014.52
2017-06-02T07:47:30.549Z,1014.5
2017-06-02T07:48:11.155Z,1014.49
2017-06-02T07:48:51.752Z,1014.52
2017-06-02T07:49:32.357Z,1014.49
2017-06-02T07:50:12.973Z,1014.48
2017-06-02T07:50:53.568Z,1014.53
2017-06-02T07:51:34.160Z,1014.48
2017-06-02T07:52:14.776Z,1014.52
2017-06-02T07:52:55.371Z,1014.47
2017-06-02T07:53:35.966Z,1014.5
2017-06-02T07:54:16.571Z,1014.48
2017-06-02T07:54:57.165Z,1014.45
2017-06-02T07:55:37.777Z,1014.45
2017-06-02T07:56:18.362Z,1014.45
2017-06-02T07:57:01.151Z,1014.41
2017-06-02T07:57:41.767Z,1014.39
2017-06-02T07:58:22.358Z,1014.4
2017-06-02T07:59:02.954Z,1014.37
2017-06-02T07:59:43.557Z,1014.36
2017-06-02T08:00:24.164Z,1014.38
2017-06-02T08:01:04.783Z,1014.37
2017-06-02T08:01:45.465Z,1014.37
2017-06-02T08:02:26.062Z,1014.37
2017-06-02T08:03:06.652Z,1014.33
2017-06-02T08:03:47.230Z,1014.37
2017-06-02T08:04:27.847Z,1014.32
2017-06-02T08:05:08.435Z,1014.34
2017-06-02T08:05:49.041Z,1014.28
2017-06-02T08:06:29.632Z,1014.25
2017-06-02T08:07:10.235Z,1014.23
2017-06-02T08:07:50.832Z,1014.28
2017-06-02T08:08:31.441Z,1014.27
2017-06-02T08:09:12.046Z,1014.27
2017-06-02T08:09:52.642Z,1014.29
2017-06-02T08:10:33.925Z,1014.3
2017-06-02T08:11:15.683Z,1014.25
2017-06-02T08:11:56.288Z,1014.26
2017-06-02T08:12:36.911Z,1014.26
2017-06-02T08:13:17.495Z,1014.25
2017-06-02T08:13:58.085Z,1014.24
2017-06-02T08:14:38.696Z,1014.25